Boston, Massachusetts
Current Conditions -  °F | °C
As of 4:54 PM on Tuesday 21 Oct 2014 (Local Time) from KBOS Reporting Station
Scattered Clouds Scattered Clouds  
Wind Chill: 57°   Ceiling: Unl
Heat Index: 57°   Visibility: 10mi
Dew Point: 55°   Wind: 8mph
Humidity: 93%   Direction: 50°NE
Pressure: 29.92"   Gusts: NA
Location:  42.36°N, 71.06°W
Report Text: KBOS 212054Z 05007KT 10SM FEW005 SCT035 SCT075 14/13 A2992 RMK AO2 SLP130 60000 T01390128 53000
Loading
Personal Weather Stations






























Interactive Weather Map
Tropical Storm Tracking
New forecast layout! Learn more

10-Day Weather Forecast

Advertisements
Track Severe Weather on mobile